Iracema, Brazil
Current Conditions -  °F | °C
As of 8:00 AM on Friday 31 Oct 2014 (Local Time) from SBMS Reporting Station
Broken Clouds Broken Clouds  
Wind Chill: 84°   Ceiling: 2500
Heat Index: 87°   Visibility: 6mi
Dew Point: 68°   Wind: 12mph
Humidity: 58%   Direction: 90°E
Pressure: 29.94"   Gusts: NA
Location:  5.81°S, 38.31°W
Report Text: SBMS 311100Z 09010KT 9999 BKN025 29/20 Q1014
Loading
Personal Weather Stations






























Interactive Weather Map
Tropical Storm Tracking
New forecast layout! Learn more

10-Day Weather Forecast

Advertisements
Track Severe Weather on mobile